Time;durP1;ratioP1;P1;durP2;ratioP2;P2;SDS_P1;SDS_P2;PMS_P1;PMS_P2;Temp;Humidity;BMP_temperature;BMP_pressure;BME280_temperature;BME280_humidity;BME280_pressure;Samples;Min_cycle;Max_cycle;Signal;HPM_P1;HPM_P2
2022/04/07 00:09:35;;;;;;;0.50;0.40;;;;;;;;;;20973710;28;20691;-66
2022/04/07 00:19:38;;;;;;;0.40;0.30;;;;;;;;;;20988117;22;20225;-69
2022/04/07 00:29:39;;;;;;;0.60;0.50;;;;;;;;;;20973423;28;20274;-70
2022/04/07 00:39:41;;;;;;;0.10;0.10;;;;;;;;;;20973587;28;20231;-70
2022/04/07 00:49:42;;;;;;;0.60;0.33;;;;;;;;;;20978393;28;20599;-69
2022/04/07 00:59:45;;;;;;;0.20;0.20;;;11.40;99.90;;;;;;20989053;28;20691;-69
2022/04/07 01:09:47;;;;;;;0.20;0.20;;;;;;;;;;20989652;28;20255;-70
2022/04/07 01:19:49;;;;;;;0.30;0.20;;;;;;;;;;20977009;28;20293;-69
2022/04/07 01:29:52;;;;;;;0.40;0.27;;;12.20;99.90;;;;;;20968659;28;20266;-69
2022/04/07 01:39:53;;;;;;;0.13;0.13;;;11.30;99.90;;;;;;20988413;28;20564;-69
2022/04/07 01:50:00;;;;;;;0.30;0.20;;;11.20;99.90;;;;;;20986786;28;20205;-69
2022/04/07 02:00:04;;;;;;;0.17;0.17;;;11.20;99.90;;;;;;20986202;28;20328;-69
2022/04/07 02:10:15;;;;;;;0.30;0.23;;;;;;;;;;20987324;28;20168;-69
2022/04/07 02:20:16;;;;;;;0.30;0.30;;;;;;;;;;21003011;28;20231;-69
2022/04/07 02:30:18;;;;;;;0.10;0.10;;;;;;;;;;21001370;28;20235;-69
2022/04/07 02:40:20;;;;;;;0.93;0.30;;;;;;;;;;20978664;28;20745;-69
2022/04/07 02:50:21;;;;;;;0.30;0.20;;;;;;;;;;21000911;28;20189;-70
2022/04/07 03:00:23;;;;;;;0.17;0.17;;;;;;;;;;21000968;28;20243;-69
2022/04/07 03:10:25;;;;;;;0.10;0.10;;;;;;;;;;20999054;28;20182;-69
2022/04/07 03:20:27;;;;;;;0.30;0.30;;;;;;;;;;20996163;28;20286;-69
2022/04/07 03:30:28;;;;;;;0.53;0.30;;;;;;;;;;20948247;28;20271;-69
2022/04/07 03:40:30;;;;;;;0.30;0.20;;;;;;;;;;20995145;28;20757;-69
2022/04/07 03:50:32;;;;;;;0.20;0.20;;;;;;;;;;20992648;28;20796;-70
2022/04/07 04:00:34;;;;;;;0.20;0.20;;;;;;;;;;20972623;28;20784;-69
2022/04/07 04:10:35;;;;;;;0.10;0.10;;;;;;;;;;20994520;28;20217;-70
2022/04/07 04:20:38;;;;;;;0.20;0.20;;;;;;;;;;20975608;28;20217;-69
2022/04/07 04:30:40;;;;;;;0.13;0.10;;;;;;;;;;20992805;28;20232;-69
2022/04/07 04:40:42;;;;;;;0.30;0.20;;;;;;;;;;20991056;28;20266;-69
2022/04/07 04:50:43;;;;;;;0.20;0.10;;;;;;;;;;20972889;28;20205;-69
2022/04/07 05:00:45;;;;;;;0.20;0.20;;;;;;;;;;20989960;28;20221;-69
2022/04/07 05:10:46;;;;;;;0.20;0.20;;;;;;;;;;20960209;28;20225;-69
2022/04/07 05:20:48;;;;;;;0.40;0.20;;;;;;;;;;20981205;28;20243;-69
2022/04/07 05:30:50;;;;;;;0.10;0.10;;;;;;;;;;20937553;28;20209;-69
2022/04/07 05:40:51;;;;;;;0.10;0.10;;;;;;;;;;20976685;28;20267;-69
2022/04/07 05:50:53;;;;;;;0.30;0.30;;;;;;;;;;20978270;28;20231;-69
2022/04/07 06:00:55;;;;;;;0.53;0.50;;;;;;;;;;20953479;28;20221;-69
2022/04/07 06:21:06;;;;;;;0.23;0.23;;;;;;;;;;21009888;27;20586;-67
2022/04/07 06:31:08;;;;;;;0.90;0.30;;;;;;;;;;20860652;28;20303;-67
2022/04/07 06:41:10;;;;;;;0.30;0.20;;;;;;;;;;20974759;28;20620;-67
2022/04/07 06:51:14;;;;;;;0.10;0.10;;;;;;;;;;20956933;28;20209;-67
2022/04/07 07:01:16;;;;;;;0.40;0.40;;;;;;;;;;20954202;28;20708;-67
2022/04/07 07:11:18;;;;;;;0.13;0.10;;;;;;;;;;20933311;28;20259;-67
2022/04/07 07:21:20;;;;;;;0.30;0.20;;;;;;;;;;20936031;28;20260;-67
2022/04/07 07:31:22;;;;;;;0.10;0.10;;;;;;;;;;20887906;28;20202;-67
2022/04/07 07:41:24;;;;;;;0.20;0.10;;;;;;;;;;20884038;28;20646;-67
2022/04/07 07:51:26;;;;;;;0.10;0.10;;;;;;;;;;20902800;28;20210;-67
2022/04/07 08:01:27;;;;;;;0.20;0.20;;;;;;;;;;20818563;28;20673;-67
2022/04/07 08:11:29;;;;;;;0.10;0.10;;;;;;;;;;20878909;28;20230;-67
2022/04/07 08:21:32;;;;;;;0.30;0.20;;;10.80;99.90;;;;;;20867165;28;20219;-67
2022/04/07 08:31:34;;;;;;;0.10;0.10;;;;;;;;;;20811993;28;20388;-67
2022/04/07 08:41:39;;;;;;;0.20;0.20;;;10.80;99.90;;;;;;20826766;28;20287;-67
2022/04/07 08:51:41;;;;;;;0.20;0.20;;;10.70;99.90;;;;;;20871037;28;20209;-67
2022/04/07 09:01:44;;;;;;;0.10;0.10;;;13.80;99.90;;;;;;20869888;28;20248;-67
2022/04/07 09:11:46;;;;;;;0.30;0.20;;;;;;;;;;20887517;28;20260;-67
2022/04/07 09:21:47;;;;;;;0.20;0.20;;;;;;;;;;20885228;28;20605;-67
2022/04/07 09:31:53;;;;;;;0.10;0.10;;;;;;;;;;20867964;28;20236;-66
2022/04/07 09:41:55;;;;;;;0.10;0.10;;;;;;;;;;20876037;28;20216;-67
2022/04/07 09:51:58;;;;;;;0.20;0.13;;;;;;;;;;20855585;28;20282;-67
2022/04/07 10:02:00;;;;;;;0.20;0.20;;;;;;;;;;20857851;28;20217;-67
2022/04/07 10:12:03;;;;;;;0.57;0.20;;;12.00;99.90;;;;;;20867216;28;20279;-67
2022/04/07 10:22:22;;;;;;;0.10;0.10;;;12.20;99.90;;;;;;20871826;28;20214;-67
2022/04/07 10:32:24;;;;;;;0.10;0.10;;;;;;;;;;20895408;28;20221;-66
2022/04/07 10:42:56;;;;;;;0.10;0.10;;;;;;;;;;20881667;28;20221;-66
2022/04/07 10:53:19;;;;;;;0.13;0.13;;;;;;;;;;20889112;28;20271;-66
2022/04/07 11:03:21;;;;;;;0.00;0.00;;;;;;;;;;20879016;28;20271;-65
2022/04/07 11:13:42;;;;;;;0.10;0.10;;;;;;;;;;20901857;28;20279;-66
2022/04/07 11:23:53;;;;;;;0.20;0.20;;;;;;;;;;20898795;28;20582;-66
2022/04/07 11:33:56;;;;;;;0.10;0.10;;;;;;;;;;20898927;28;20255;-66
2022/04/07 11:43:57;;;;;;;0.10;0.10;;;12.90;99.90;;;;;;20881854;28;20283;-67
2022/04/07 11:53:59;;;;;;;0.17;0.17;;;;;;;;;;20882252;28;20189;-66
2022/04/07 12:04:04;;;;;;;2.67;0.20;;;12.80;99.90;;;;;;20900410;28;20221;-66
2022/04/07 12:14:09;;;;;;;0.20;0.20;;;;;;;;;;20962800;28;20231;-66
2022/04/07 12:24:13;;;;;;;0.20;0.20;;;13.30;99.90;;;;;;20962419;28;20251;-66
2022/04/07 12:34:19;;;;;;;0.10;0.10;;;;;;;;;;20977906;28;20209;-66
2022/04/07 12:44:26;;;;;;;0.10;0.10;;;13.40;99.90;;;;;;20960502;28;20250;-66
2022/04/07 12:54:29;;;;;;;0.10;0.10;;;13.50;99.90;;;;;;20961070;28;20546;-66
2022/04/07 13:04:49;;;;;;;0.13;0.13;;;13.50;99.90;;;;;;20942580;28;20284;-67
2022/04/07 13:14:51;;;;;;;0.50;0.20;;;;;;;;;;20957766;28;20270;-67
2022/04/07 13:24:53;;;;;;;0.20;0.20;;;13.70;99.90;;;;;;20973704;28;20279;-67
2022/04/07 13:34:57;;;;;;;0.20;0.20;;;;;;;;;;20973495;28;20564;-66
2022/04/07 13:44:59;;;;;;;0.10;0.10;;;;;;;;;;20956657;28;20567;-66
2022/04/07 13:55:01;;;;;;;0.10;0.10;;;;;;;;;;20955765;28;20618;-66
2022/04/07 14:05:04;;;;;;;1.23;0.20;;;;;;;;;;20904148;28;20275;-66
2022/04/07 14:15:07;;;;;;;0.10;0.10;;;13.20;99.90;;;;;;20862586;28;20225;-66
2022/04/07 14:25:09;;;;;;;0.20;0.20;;;13.10;99.90;;;;;;20858204;28;20217;-66
2022/04/07 14:35:14;;;;;;;0.20;0.20;;;12.80;99.90;;;;;;20890256;28;20214;-66
2022/04/07 14:45:16;;;;;;;0.10;0.10;;;;;;;;;;20901951;28;20230;-65
2022/04/07 14:55:18;;;;;;;0.10;0.10;;;;;;;;;;20899213;28;20591;-65
2022/04/07 15:05:20;;;;;;;0.20;0.20;;;;;;;;;;20901121;28;20650;-65
2022/04/07 15:15:23;;;;;;;0.20;0.20;;;;;;;;;;20820312;28;20292;-65
2022/04/07 15:25:25;;;;;;;0.20;0.20;;;;;;;;;;20817161;28;20276;-65
2022/04/07 15:35:32;;;;;;;0.47;0.30;;;13.00;99.90;;;;;;20813990;28;20194;-66
2022/04/07 15:45:34;;;;;;;0.30;0.30;;;;;;;;;;20846177;28;20270;-66
2022/04/07 15:55:38;;;;;;;0.70;0.40;;;;;;;;;;20899898;28;20213;-66
2022/04/07 16:05:41;;;;;;;0.20;0.20;;;14.40;99.90;;;;;;20883902;28;20229;-64
2022/04/07 16:15:43;;;;;;;0.53;0.40;;;13.80;99.90;;;;;;20887591;28;20299;-66
2022/04/07 16:25:46;;;;;;;0.40;0.30;;;;;;;;;;20865374;28;20262;-65
2022/04/07 16:35:49;;;;;;;0.30;0.30;;;;;;;;;;20865019;28;20210;-65
2022/04/07 16:45:51;;;;;;;0.97;0.37;;;;;;;;;;20849731;28;20252;-65
2022/04/07 16:55:53;;;;;;;0.57;0.30;;;;;;;;;;20876441;28;20616;-65
2022/04/07 17:05:54;;;;;;;0.50;0.30;;;;;;;;;;20868014;28;20221;-64
2022/04/07 17:15:56;;;;;;;3.87;1.00;;;;;;;;;;20872306;28;20256;-67
2022/04/07 17:25:59;;;;;;;0.53;0.40;;;;;;;;;;20888862;28;20236;-67
2022/04/07 17:36:02;;;;;;;0.57;0.30;;;;;;;;;;20863593;28;20210;-67
2022/04/07 17:46:04;;;;;;;0.93;0.40;;;;;;;;;;20867847;28;20217;-67
2022/04/07 17:56:10;;;;;;;1.43;0.70;;;;;;;;;;20851124;28;20303;-65
2022/04/07 18:06:12;;;;;;;0.20;0.20;;;;;;;;;;20875809;28;20218;-67
2022/04/07 18:16:14;;;;;;;0.47;0.30;;;11.90;99.90;;;;;;20880535;28;20221;-68
2022/04/07 18:26:16;;;;;;;3.20;0.30;;;;;;;;;;20863072;28;20703;-66
2022/04/07 18:36:19;;;;;;;0.37;0.37;;;;;;;;;;20883860;28;20225;-65
2022/04/07 18:46:21;;;;;;;0.57;0.30;;;;;;;;;;20865485;28;20222;-67
2022/04/07 18:56:23;;;;;;;2.37;0.90;;;11.30;99.90;;;;;;20868555;28;20272;-67
2022/04/07 19:06:25;;;;;;;2.27;0.70;;;;;;;;;;20845996;28;20244;-67
2022/04/07 19:16:27;;;;;;;0.43;0.37;;;;;;;;;;20851585;28;20703;-67
2022/04/07 19:26:30;;;;;;;1.20;0.80;;;;;;;;;;20944285;28;20268;-64
2022/04/07 19:36:32;;;;;;;0.70;0.40;;;;;;;;;;20885860;28;20279;-64
2022/04/07 19:46:33;;;;;;;2.60;1.00;;;11.80;99.90;;;;;;20876469;28;20286;-64
2022/04/07 19:56:36;;;;;;;0.20;0.20;;;;;;;;;;20915211;28;20294;-64
2022/04/07 20:06:38;;;;;;;1.17;0.67;;;;;;;;;;20892065;28;20280;-64
2022/04/07 20:16:42;;;;;;;0.40;0.40;;;11.70;99.90;;;;;;20870572;28;20628;-64
2022/04/07 20:26:46;;;;;;;0.97;0.30;;;;;;;;;;20903498;28;20217;-64
2022/04/07 20:36:48;;;;;;;0.80;0.57;;;;;;;;;;20906235;28;20214;-65
2022/04/07 20:46:50;;;;;;;0.80;0.23;;;;;;;;;;20904027;28;20225;-67
2022/04/07 20:56:52;;;;;;;1.60;0.50;;;;;;;;;;20869259;28;20210;-67
2022/04/07 21:06:54;;;;;;;0.40;0.37;;;;;;;;;;20874651;28;20644;-68
2022/04/07 21:16:56;;;;;;;3.77;0.30;;;;;;;;;;20892259;28;20234;-68
2022/04/07 21:26:58;;;;;;;0.73;0.30;;;;;;;;;;20881216;28;20747;-67
2022/04/07 21:37:00;;;;;;;0.70;0.33;;;;;;;;;;20890787;28;20218;-68
2022/04/07 21:47:02;;;;;;;1.27;0.53;;;;;;;;;;20805776;28;20218;-67
2022/04/07 21:57:03;;;;;;;0.67;0.57;;;;;;;;;;20807681;28;20260;-67
2022/04/07 22:07:06;;;;;;;1.07;0.43;;;;;;;;;;20850605;28;20287;-66
2022/04/07 22:17:08;;;;;;;0.57;0.30;;;;;;;;;;20872808;28;20247;-67
2022/04/07 22:27:10;;;;;;;1.30;0.43;;;;;;;;;;20871483;28;20219;-67
2022/04/07 22:37:12;;;;;;;0.70;0.30;;;;;;;;;;20869086;28;20291;-67
2022/04/07 22:47:14;;;;;;;0.50;0.30;;;;;;;;;;20856606;28;20283;-67
2022/04/07 22:57:15;;;;;;;1.03;0.37;;;;;;;;;;20894945;28;20222;-67
2022/04/07 23:07:17;;;;;;;0.20;0.20;;;10.90;99.90;;;;;;20902518;28;20230;-67
2022/04/07 23:17:23;;;;;;;0.73;0.20;;;;;;;;;;20885269;28;20214;-66
2022/04/07 23:27:28;;;;;;;0.50;0.40;;;;;;;;;;20932295;28;20638;-67
2022/04/07 23:37:30;;;;;;;1.30;0.50;;;;;;;;;;20883505;28;20240;-67
2022/04/07 23:47:32;;;;;;;0.20;0.20;;;;;;;;;;20866295;28;20218;-67
2022/04/07 23:57:34;;;;;;;0.30;0.20;;;;;;;;;;20881711;28;20232;-66
